sensor_id;sensor_type;location;lat;lon;timestamp;temperature;humidity
19330;DHT22;9799;48.214;16.388;2023-07-24T00:01:29;25.40;99.90
19330;DHT22;9799;48.214;16.388;2023-07-24T00:04:50;25.40;99.90
19330;DHT22;9799;48.214;16.388;2023-07-24T00:08:12;25.40;99.90
19330;DHT22;9799;48.214;16.388;2023-07-24T00:11:34;25.50;99.90
19330;DHT22;9799;48.214;16.388;2023-07-24T00:14:55;25.50;99.90
19330;DHT22;9799;48.214;16.388;2023-07-24T00:18:16;25.50;99.90
19330;DHT22;9799;48.214;16.388;2023-07-24T00:21:38;25.50;99.90
19330;DHT22;9799;48.214;16.388;2023-07-24T00:24:59;25.50;99.90
19330;DHT22;9799;48.214;16.388;2023-07-24T00:28:21;25.60;99.90
19330;DHT22;9799;48.214;16.388;2023-07-24T00:31:42;25.60;99.90
19330;DHT22;9799;48.214;16.388;2023-07-24T00:35:05;25.60;99.90
19330;DHT22;9799;48.214;16.388;2023-07-24T00:38:26;25.50;99.90
19330;DHT22;9799;48.214;16.388;2023-07-24T00:41:47;25.40;99.90
19330;DHT22;9799;48.214;16.388;2023-07-24T00:45:10;25.40;99.90
19330;DHT22;9799;48.214;16.388;2023-07-24T00:48:31;25.40;99.90
19330;DHT22;9799;48.214;16.388;2023-07-24T00:51:52;25.30;99.90
19330;DHT22;9799;48.214;16.388;2023-07-24T00:55:14;25.20;99.90
19330;DHT22;9799;48.214;16.388;2023-07-24T00:58:38;25.10;99.90
19330;DHT22;9799;48.214;16.388;2023-07-24T01:02:00;25.10;99.90
19330;DHT22;9799;48.214;16.388;2023-07-24T01:05:22;25.00;99.90
19330;DHT22;9799;48.214;16.388;2023-07-24T01:08:46;24.80;99.90
19330;DHT22;9799;48.214;16.388;2023-07-24T01:12:13;24.80;99.90
19330;DHT22;9799;48.214;16.388;2023-07-24T01:15:42;24.80;99.90
19330;DHT22;9799;48.214;16.388;2023-07-24T01:19:12;24.90;99.90
19330;DHT22;9799;48.214;16.388;2023-07-24T01:22:39;24.90;99.90
19330;DHT22;9799;48.214;16.388;2023-07-24T01:26:11;24.90;99.90
19330;DHT22;9799;48.214;16.388;2023-07-24T01:29:35;24.90;99.90
19330;DHT22;9799;48.214;16.388;2023-07-24T01:33:05;24.80;99.90
19330;DHT22;9799;48.214;16.388;2023-07-24T01:36:36;24.70;99.90
19330;DHT22;9799;48.214;16.388;2023-07-24T01:39:58;24.60;99.90
19330;DHT22;9799;48.214;16.388;2023-07-24T01:43:22;24.50;99.90
19330;DHT22;9799;48.214;16.388;2023-07-24T01:46:43;24.50;99.90
19330;DHT22;9799;48.214;16.388;2023-07-24T01:50:06;24.50;99.90
19330;DHT22;9799;48.214;16.388;2023-07-24T01:53:27;24.30;99.90
19330;DHT22;9799;48.214;16.388;2023-07-24T01:56:48;24.30;99.90
19330;DHT22;9799;48.214;16.388;2023-07-24T02:00:16;24.20;99.90
19330;DHT22;9799;48.214;16.388;2023-07-24T02:03:50;24.10;99.90
19330;DHT22;9799;48.214;16.388;2023-07-24T02:07:12;24.10;99.90
19330;DHT22;9799;48.214;16.388;2023-07-24T02:10:36;24.10;99.90
19330;DHT22;9799;48.214;16.388;2023-07-24T02:13:58;24.10;99.90
19330;DHT22;9799;48.214;16.388;2023-07-24T02:17:20;24.00;99.90
19330;DHT22;9799;48.214;16.388;2023-07-24T02:20:41;24.00;99.90
19330;DHT22;9799;48.214;16.388;2023-07-24T02:24:08;24.00;99.90
19330;DHT22;9799;48.214;16.388;2023-07-24T02:27:31;24.10;99.90
19330;DHT22;9799;48.214;16.388;2023-07-24T02:30:54;23.90;99.90
19330;DHT22;9799;48.214;16.388;2023-07-24T02:34:18;23.80;99.90
19330;DHT22;9799;48.214;16.388;2023-07-24T02:37:39;23.70;99.90
19330;DHT22;9799;48.214;16.388;2023-07-24T02:41:00;23.70;99.90
19330;DHT22;9799;48.214;16.388;2023-07-24T02:44:21;23.70;99.90
19330;DHT22;9799;48.214;16.388;2023-07-24T02:47:42;23.90;99.90
19330;DHT22;9799;48.214;16.388;2023-07-24T02:51:04;23.90;99.90
19330;DHT22;9799;48.214;16.388;2023-07-24T02:54:26;23.80;99.90
19330;DHT22;9799;48.214;16.388;2023-07-24T02:57:47;23.70;99.90
19330;DHT22;9799;48.214;16.388;2023-07-24T03:01:08;23.70;99.90
19330;DHT22;9799;48.214;16.388;2023-07-24T03:04:30;23.80;99.90
19330;DHT22;9799;48.214;16.388;2023-07-24T03:07:53;23.80;99.90
19330;DHT22;9799;48.214;16.388;2023-07-24T03:11:14;24.00;99.90
19330;DHT22;9799;48.214;16.388;2023-07-24T03:14:35;24.10;99.90
19330;DHT22;9799;48.214;16.388;2023-07-24T03:17:56;24.00;99.90
19330;DHT22;9799;48.214;16.388;2023-07-24T03:21:19;23.80;99.90
19330;DHT22;9799;48.214;16.388;2023-07-24T03:24:41;23.80;99.90
19330;DHT22;9799;48.214;16.388;2023-07-24T03:28:03;23.70;99.90
19330;DHT22;9799;48.214;16.388;2023-07-24T03:31:24;23.70;99.90
19330;DHT22;9799;48.214;16.388;2023-07-24T03:34:45;23.40;99.90
19330;DHT22;9799;48.214;16.388;2023-07-24T03:38:06;23.20;99.90
19330;DHT22;9799;48.214;16.388;2023-07-24T03:41:28;23.20;99.90
19330;DHT22;9799;48.214;16.388;2023-07-24T03:44:50;23.20;99.90
19330;DHT22;9799;48.214;16.388;2023-07-24T03:48:11;23.20;99.90
19330;DHT22;9799;48.214;16.388;2023-07-24T03:51:32;23.30;99.90
19330;DHT22;9799;48.214;16.388;2023-07-24T03:54:53;23.30;99.90
19330;DHT22;9799;48.214;16.388;2023-07-24T03:58:16;23.30;99.90
19330;DHT22;9799;48.214;16.388;2023-07-24T04:01:37;23.40;99.90
19330;DHT22;9799;48.214;16.388;2023-07-24T04:04:58;23.40;99.90
19330;DHT22;9799;48.214;16.388;2023-07-24T04:08:19;23.30;99.90
19330;DHT22;9799;48.214;16.388;2023-07-24T04:11:40;23.30;99.90
19330;DHT22;9799;48.214;16.388;2023-07-24T04:15:03;23.20;99.90
19330;DHT22;9799;48.214;16.388;2023-07-24T04:18:25;23.30;99.90
19330;DHT22;9799;48.214;16.388;2023-07-24T04:21:46;23.20;99.90
19330;DHT22;9799;48.214;16.388;2023-07-24T04:25:08;23.00;99.90
19330;DHT22;9799;48.214;16.388;2023-07-24T04:28:29;23.00;99.90
19330;DHT22;9799;48.214;16.388;2023-07-24T04:31:51;23.00;99.90
19330;DHT22;9799;48.214;16.388;2023-07-24T04:35:12;23.00;99.90
19330;DHT22;9799;48.214;16.388;2023-07-24T04:38:34;23.00;99.90
19330;DHT22;9799;48.214;16.388;2023-07-24T04:41:55;23.00;99.90
19330;DHT22;9799;48.214;16.388;2023-07-24T04:45:16;22.90;99.90
19330;DHT22;9799;48.214;16.388;2023-07-24T04:48:38;22.80;99.90
19330;DHT22;9799;48.214;16.388;2023-07-24T04:52:00;22.90;99.90
19330;DHT22;9799;48.214;16.388;2023-07-24T04:55:21;22.80;99.90
19330;DHT22;9799;48.214;16.388;2023-07-24T04:58:42;22.90;99.90
19330;DHT22;9799;48.214;16.388;2023-07-24T05:02:03;23.00;99.90
19330;DHT22;9799;48.214;16.388;2023-07-24T05:05:26;23.00;99.90
19330;DHT22;9799;48.214;16.388;2023-07-24T05:08:47;22.90;99.90
19330;DHT22;9799;48.214;16.388;2023-07-24T05:12:09;23.00;99.90
19330;DHT22;9799;48.214;16.388;2023-07-24T05:15:30;23.10;99.90
19330;DHT22;9799;48.214;16.388;2023-07-24T05:18:51;22.90;99.90
19330;DHT22;9799;48.214;16.388;2023-07-24T05:22:14;22.90;99.90
19330;DHT22;9799;48.214;16.388;2023-07-24T05:25:35;22.80;99.90
19330;DHT22;9799;48.214;16.388;2023-07-24T05:28:56;22.90;99.90
19330;DHT22;9799;48.214;16.388;2023-07-24T05:32:18;22.90;99.90
19330;DHT22;9799;48.214;16.388;2023-07-24T05:35:39;22.90;99.90
19330;DHT22;9799;48.214;16.388;2023-07-24T05:39:01;22.90;99.90
19330;DHT22;9799;48.214;16.388;2023-07-24T05:42:22;23.00;99.90
19330;DHT22;9799;48.214;16.388;2023-07-24T05:45:44;23.20;99.90
19330;DHT22;9799;48.214;16.388;2023-07-24T05:49:05;23.40;99.90
19330;DHT22;9799;48.214;16.388;2023-07-24T05:52:26;23.50;99.90
19330;DHT22;9799;48.214;16.388;2023-07-24T05:55:56;23.60;99.90
19330;DHT22;9799;48.214;16.388;2023-07-24T05:59:18;24.00;99.90
19330;DHT22;9799;48.214;16.388;2023-07-24T06:02:39;24.30;99.90
19330;DHT22;9799;48.214;16.388;2023-07-24T06:06:00;24.50;99.90
19330;DHT22;9799;48.214;16.388;2023-07-24T06:09:21;24.70;99.90
19330;DHT22;9799;48.214;16.388;2023-07-24T06:12:44;24.90;99.90
19330;DHT22;9799;48.214;16.388;2023-07-24T06:16:05;25.00;99.90
19330;DHT22;9799;48.214;16.388;2023-07-24T06:19:27;25.10;99.90
19330;DHT22;9799;48.214;16.388;2023-07-24T06:22:48;25.30;99.90
19330;DHT22;9799;48.214;16.388;2023-07-24T06:26:10;25.30;99.90
19330;DHT22;9799;48.214;16.388;2023-07-24T06:29:32;25.40;99.90
19330;DHT22;9799;48.214;16.388;2023-07-24T06:32:53;25.40;99.90
19330;DHT22;9799;48.214;16.388;2023-07-24T06:36:15;25.70;99.90
19330;DHT22;9799;48.214;16.388;2023-07-24T06:39:36;26.00;99.90
19330;DHT22;9799;48.214;16.388;2023-07-24T06:42:57;26.20;99.90
19330;DHT22;9799;48.214;16.388;2023-07-24T06:46:20;26.40;99.90
19330;DHT22;9799;48.214;16.388;2023-07-24T06:49:41;26.50;99.90
19330;DHT22;9799;48.214;16.388;2023-07-24T06:53:02;26.60;99.90
19330;DHT22;9799;48.214;16.388;2023-07-24T06:56:23;26.70;99.90
19330;DHT22;9799;48.214;16.388;2023-07-24T06:59:44;26.70;99.90
19330;DHT22;9799;48.214;16.388;2023-07-24T07:03:07;26.90;99.90
19330;DHT22;9799;48.214;16.388;2023-07-24T07:06:28;27.00;99.90
19330;DHT22;9799;48.214;16.388;2023-07-24T07:09:49;27.00;99.90
19330;DHT22;9799;48.214;16.388;2023-07-24T07:13:10;26.90;99.90
19330;DHT22;9799;48.214;16.388;2023-07-24T07:16:31;27.00;99.90
19330;DHT22;9799;48.214;16.388;2023-07-24T07:19:54;27.00;99.90
19330;DHT22;9799;48.214;16.388;2023-07-24T07:23:17;27.00;99.90
19330;DHT22;9799;48.214;16.388;2023-07-24T07:26:38;27.00;99.90
19330;DHT22;9799;48.214;16.388;2023-07-24T07:29:59;27.10;99.90
19330;DHT22;9799;48.214;16.388;2023-07-24T07:33:21;27.10;99.90
19330;DHT22;9799;48.214;16.388;2023-07-24T07:36:44;27.30;99.90
19330;DHT22;9799;48.214;16.388;2023-07-24T07:40:06;27.30;99.90
19330;DHT22;9799;48.214;16.388;2023-07-24T07:43:27;27.20;99.90
19330;DHT22;9799;48.214;16.388;2023-07-24T07:46:49;27.30;99.90
19330;DHT22;9799;48.214;16.388;2023-07-24T07:50:10;27.20;99.90
19330;DHT22;9799;48.214;16.388;2023-07-24T07:53:32;27.30;99.90
19330;DHT22;9799;48.214;16.388;2023-07-24T07:56:53;27.50;99.90
19330;DHT22;9799;48.214;16.388;2023-07-24T08:00:15;27.60;99.90
19330;DHT22;9799;48.214;16.388;2023-07-24T08:03:36;27.80;99.90
19330;DHT22;9799;48.214;16.388;2023-07-24T08:06:58;27.60;99.90
19330;DHT22;9799;48.214;16.388;2023-07-24T08:10:20;27.60;99.90
19330;DHT22;9799;48.214;16.388;2023-07-24T08:13:41;27.70;99.90
19330;DHT22;9799;48.214;16.388;2023-07-24T08:17:10;27.80;99.90
19330;DHT22;9799;48.214;16.388;2023-07-24T08:20:32;28.20;99.90
19330;DHT22;9799;48.214;16.388;2023-07-24T08:23:55;28.40;99.90
19330;DHT22;9799;48.214;16.388;2023-07-24T08:27:19;28.40;99.90
19330;DHT22;9799;48.214;16.388;2023-07-24T08:30:40;28.20;99.90
19330;DHT22;9799;48.214;16.388;2023-07-24T08:34:04;28.40;99.90
19330;DHT22;9799;48.214;16.388;2023-07-24T08:37:25;29.00;99.90
19330;DHT22;9799;48.214;16.388;2023-07-24T08:40:46;29.20;99.90
19330;DHT22;9799;48.214;16.388;2023-07-24T08:44:09;29.30;99.90
19330;DHT22;9799;48.214;16.388;2023-07-24T08:47:33;29.40;99.90
19330;DHT22;9799;48.214;16.388;2023-07-24T08:50:56;29.70;99.90
19330;DHT22;9799;48.214;16.388;2023-07-24T08:54:18;30.00;99.90
19330;DHT22;9799;48.214;16.388;2023-07-24T08:57:40;30.10;99.90
19330;DHT22;9799;48.214;16.388;2023-07-24T09:01:03;30.40;99.90
19330;DHT22;9799;48.214;16.388;2023-07-24T09:04:25;30.80;99.90
19330;DHT22;9799;48.214;16.388;2023-07-24T09:07:46;30.60;99.90
19330;DHT22;9799;48.214;16.388;2023-07-24T09:11:09;30.80;99.90
19330;DHT22;9799;48.214;16.388;2023-07-24T09:14:31;30.60;99.90
19330;DHT22;9799;48.214;16.388;2023-07-24T09:17:53;30.20;99.90
19330;DHT22;9799;48.214;16.388;2023-07-24T09:21:14;30.30;99.90
19330;DHT22;9799;48.214;16.388;2023-07-24T09:24:36;30.30;99.90
19330;DHT22;9799;48.214;16.388;2023-07-24T09:27:57;30.30;99.90
19330;DHT22;9799;48.214;16.388;2023-07-24T09:31:19;30.30;99.90
19330;DHT22;9799;48.214;16.388;2023-07-24T09:34:43;30.50;99.90
19330;DHT22;9799;48.214;16.388;2023-07-24T09:38:06;30.60;99.90
19330;DHT22;9799;48.214;16.388;2023-07-24T09:41:28;30.70;99.90
19330;DHT22;9799;48.214;16.388;2023-07-24T09:44:49;30.70;98.90
19330;DHT22;9799;48.214;16.388;2023-07-24T09:48:12;30.90;97.40
19330;DHT22;9799;48.214;16.388;2023-07-24T09:51:36;31.30;96.80
19330;DHT22;9799;48.214;16.388;2023-07-24T09:55:08;31.70;95.60
19330;DHT22;9799;48.214;16.388;2023-07-24T09:58:33;31.60;95.50
19330;DHT22;9799;48.214;16.388;2023-07-24T10:01:55;31.70;95.30
19330;DHT22;9799;48.214;16.388;2023-07-24T10:05:17;31.70;94.90
19330;DHT22;9799;48.214;16.388;2023-07-24T10:08:48;31.60;94.60
19330;DHT22;9799;48.214;16.388;2023-07-24T10:12:10;31.30;95.10
19330;DHT22;9799;48.214;16.388;2023-07-24T10:15:31;31.30;95.00
19330;DHT22;9799;48.214;16.388;2023-07-24T10:18:53;31.40;94.00
19330;DHT22;9799;48.214;16.388;2023-07-24T10:22:17;31.60;93.40
19330;DHT22;9799;48.214;16.388;2023-07-24T10:25:40;31.80;92.90
19330;DHT22;9799;48.214;16.388;2023-07-24T10:29:03;31.90;92.40
19330;DHT22;9799;48.214;16.388;2023-07-24T10:32:24;32.20;92.30
19330;DHT22;9799;48.214;16.388;2023-07-24T10:35:46;32.50;91.90
19330;DHT22;9799;48.214;16.388;2023-07-24T10:39:14;32.70;91.20
19330;DHT22;9799;48.214;16.388;2023-07-24T10:42:37;32.60;90.80
19330;DHT22;9799;48.214;16.388;2023-07-24T10:45:58;32.50;90.70
19330;DHT22;9799;48.214;16.388;2023-07-24T10:49:21;32.70;91.90
19330;DHT22;9799;48.214;16.388;2023-07-24T10:52:43;32.90;90.80
19330;DHT22;9799;48.214;16.388;2023-07-24T10:56:04;33.20;90.80
19330;DHT22;9799;48.214;16.388;2023-07-24T10:59:37;33.20;90.90
19330;DHT22;9799;48.214;16.388;2023-07-24T11:02:59;33.30;90.50
19330;DHT22;9799;48.214;16.388;2023-07-24T11:06:21;33.50;90.10
19330;DHT22;9799;48.214;16.388;2023-07-24T11:09:42;33.60;90.00
19330;DHT22;9799;48.214;16.388;2023-07-24T11:13:10;33.40;90.00
19330;DHT22;9799;48.214;16.388;2023-07-24T11:16:32;33.50;90.20
19330;DHT22;9799;48.214;16.388;2023-07-24T11:19:54;33.50;89.30
19330;DHT22;9799;48.214;16.388;2023-07-24T11:23:25;33.30;88.60
19330;DHT22;9799;48.214;16.388;2023-07-24T11:26:46;33.10;87.10
19330;DHT22;9799;48.214;16.388;2023-07-24T11:30:08;33.20;88.40
19330;DHT22;9799;48.214;16.388;2023-07-24T11:33:31;33.30;85.80
19330;DHT22;9799;48.214;16.388;2023-07-24T11:36:52;33.30;85.00
19330;DHT22;9799;48.214;16.388;2023-07-24T11:40:13;33.40;84.60
19330;DHT22;9799;48.214;16.388;2023-07-24T11:43:35;33.20;85.00
19330;DHT22;9799;48.214;16.388;2023-07-24T11:47:06;33.20;84.80
19330;DHT22;9799;48.214;16.388;2023-07-24T11:50:28;33.10;85.40
19330;DHT22;9799;48.214;16.388;2023-07-24T11:53:50;33.20;84.90
19330;DHT22;9799;48.214;16.388;2023-07-24T11:57:20;33.10;84.90
19330;DHT22;9799;48.214;16.388;2023-07-24T12:00:41;33.00;83.20
19330;DHT22;9799;48.214;16.388;2023-07-24T12:04:02;33.20;82.30
19330;DHT22;9799;48.214;16.388;2023-07-24T12:07:29;33.40;81.10
19330;DHT22;9799;48.214;16.388;2023-07-24T12:10:51;33.20;79.50
19330;DHT22;9799;48.214;16.388;2023-07-24T12:14:13;33.20;79.10
19330;DHT22;9799;48.214;16.388;2023-07-24T12:17:34;33.20;78.30
19330;DHT22;9799;48.214;16.388;2023-07-24T12:20:56;33.00;80.60
19330;DHT22;9799;48.214;16.388;2023-07-24T12:24:18;33.00;82.00
19330;DHT22;9799;48.214;16.388;2023-07-24T12:27:39;33.00;81.50
19330;DHT22;9799;48.214;16.388;2023-07-24T12:31:01;32.80;81.20
19330;DHT22;9799;48.214;16.388;2023-07-24T12:34:24;32.90;79.60
19330;DHT22;9799;48.214;16.388;2023-07-24T12:37:45;33.30;78.20
19330;DHT22;9799;48.214;16.388;2023-07-24T12:41:08;33.50;79.90
19330;DHT22;9799;48.214;16.388;2023-07-24T12:44:29;33.60;81.10
19330;DHT22;9799;48.214;16.388;2023-07-24T12:47:50;33.80;81.00
19330;DHT22;9799;48.214;16.388;2023-07-24T12:51:11;33.70;79.60
19330;DHT22;9799;48.214;16.388;2023-07-24T12:54:33;33.70;79.40
19330;DHT22;9799;48.214;16.388;2023-07-24T12:57:55;33.70;82.10
19330;DHT22;9799;48.214;16.388;2023-07-24T13:01:17;33.60;81.40
19330;DHT22;9799;48.214;16.388;2023-07-24T13:04:38;33.40;78.90
19330;DHT22;9799;48.214;16.388;2023-07-24T13:07:59;33.50;77.90
19330;DHT22;9799;48.214;16.388;2023-07-24T13:11:20;33.70;78.20
19330;DHT22;9799;48.214;16.388;2023-07-24T13:14:43;33.40;77.20
19330;DHT22;9799;48.214;16.388;2023-07-24T13:18:04;33.70;76.10
19330;DHT22;9799;48.214;16.388;2023-07-24T13:21:25;33.70;77.70
19330;DHT22;9799;48.214;16.388;2023-07-24T13:24:46;33.70;79.80
19330;DHT22;9799;48.214;16.388;2023-07-24T13:28:07;33.70;80.20
19330;DHT22;9799;48.214;16.388;2023-07-24T13:31:31;33.70;81.00
19330;DHT22;9799;48.214;16.388;2023-07-24T13:34:52;33.50;81.30
19330;DHT22;9799;48.214;16.388;2023-07-24T13:38:14;33.30;82.30
19330;DHT22;9799;48.214;16.388;2023-07-24T13:41:36;33.20;83.00
19330;DHT22;9799;48.214;16.388;2023-07-24T13:44:58;33.50;83.00
19330;DHT22;9799;48.214;16.388;2023-07-24T13:48:20;33.40;83.30
19330;DHT22;9799;48.214;16.388;2023-07-24T13:51:42;33.50;82.90
19330;DHT22;9799;48.214;16.388;2023-07-24T13:55:03;33.60;83.30
19330;DHT22;9799;48.214;16.388;2023-07-24T13:58:25;33.60;83.00
19330;DHT22;9799;48.214;16.388;2023-07-24T14:01:46;33.30;82.40
19330;DHT22;9799;48.214;16.388;2023-07-24T14:05:09;33.30;81.90
19330;DHT22;9799;48.214;16.388;2023-07-24T14:08:30;33.10;81.80
19330;DHT22;9799;48.214;16.388;2023-07-24T14:11:52;33.10;81.70
19330;DHT22;9799;48.214;16.388;2023-07-24T14:15:13;33.20;80.30
19330;DHT22;9799;48.214;16.388;2023-07-24T14:18:34;33.40;79.40
19330;DHT22;9799;48.214;16.388;2023-07-24T14:21:57;33.20;79.70
19330;DHT22;9799;48.214;16.388;2023-07-24T14:25:19;33.10;80.10
19330;DHT22;9799;48.214;16.388;2023-07-24T14:28:40;32.90;82.20
19330;DHT22;9799;48.214;16.388;2023-07-24T14:32:02;33.20;82.50
19330;DHT22;9799;48.214;16.388;2023-07-24T14:35:24;33.10;83.80
19330;DHT22;9799;48.214;16.388;2023-07-24T14:38:47;32.90;84.50
19330;DHT22;9799;48.214;16.388;2023-07-24T14:42:09;32.70;85.20
19330;DHT22;9799;48.214;16.388;2023-07-24T14:45:32;33.20;83.90
19330;DHT22;9799;48.214;16.388;2023-07-24T14:48:54;33.20;83.60
19330;DHT22;9799;48.214;16.388;2023-07-24T14:52:16;33.30;82.70
19330;DHT22;9799;48.214;16.388;2023-07-24T14:55:39;32.90;83.10
19330;DHT22;9799;48.214;16.388;2023-07-24T14:59:01;32.80;82.90
19330;DHT22;9799;48.214;16.388;2023-07-24T15:02:23;32.70;83.40
19330;DHT22;9799;48.214;16.388;2023-07-24T15:05:44;32.90;82.40
19330;DHT22;9799;48.214;16.388;2023-07-24T15:09:06;33.20;81.80
19330;DHT22;9799;48.214;16.388;2023-07-24T15:12:29;33.30;80.00
19330;DHT22;9799;48.214;16.388;2023-07-24T15:15:51;33.40;80.40
19330;DHT22;9799;48.214;16.388;2023-07-24T15:19:13;33.60;78.50
19330;DHT22;9799;48.214;16.388;2023-07-24T15:22:36;33.40;77.60
19330;DHT22;9799;48.214;16.388;2023-07-24T15:25:58;33.30;76.90
19330;DHT22;9799;48.214;16.388;2023-07-24T15:29:22;33.00;76.40
19330;DHT22;9799;48.214;16.388;2023-07-24T15:32:44;32.90;75.40
19330;DHT22;9799;48.214;16.388;2023-07-24T15:36:07;32.60;75.20
19330;DHT22;9799;48.214;16.388;2023-07-24T15:39:29;32.70;74.20
19330;DHT22;9799;48.214;16.388;2023-07-24T15:42:51;32.50;75.40
19330;DHT22;9799;48.214;16.388;2023-07-24T15:46:14;32.50;75.00
19330;DHT22;9799;48.214;16.388;2023-07-24T15:49:35;32.40;75.10
19330;DHT22;9799;48.214;16.388;2023-07-24T15:52:56;32.40;74.60
19330;DHT22;9799;48.214;16.388;2023-07-24T15:56:17;32.30;73.80
19330;DHT22;9799;48.214;16.388;2023-07-24T15:59:38;32.30;73.60
19330;DHT22;9799;48.214;16.388;2023-07-24T16:03:01;32.00;76.10
19330;DHT22;9799;48.214;16.388;2023-07-24T16:06:23;31.90;74.30
19330;DHT22;9799;48.214;16.388;2023-07-24T16:09:44;31.90;74.10
19330;DHT22;9799;48.214;16.388;2023-07-24T16:13:06;31.90;74.20
19330;DHT22;9799;48.214;16.388;2023-07-24T16:16:27;31.90;73.80
19330;DHT22;9799;48.214;16.388;2023-07-24T16:19:50;31.80;73.50
19330;DHT22;9799;48.214;16.388;2023-07-24T16:23:11;31.80;74.00
19330;DHT22;9799;48.214;16.388;2023-07-24T16:26:33;31.80;74.50
19330;DHT22;9799;48.214;16.388;2023-07-24T16:29:55;31.80;73.80
19330;DHT22;9799;48.214;16.388;2023-07-24T16:33:16;31.50;76.10
19330;DHT22;9799;48.214;16.388;2023-07-24T16:36:39;31.50;74.50
19330;DHT22;9799;48.214;16.388;2023-07-24T16:40:00;31.40;74.60
19330;DHT22;9799;48.214;16.388;2023-07-24T16:43:21;31.40;74.90
19330;DHT22;9799;48.214;16.388;2023-07-24T16:46:43;31.20;74.70
19330;DHT22;9799;48.214;16.388;2023-07-24T16:50:06;31.30;73.90
19330;DHT22;9799;48.214;16.388;2023-07-24T16:53:29;31.40;74.30
19330;DHT22;9799;48.214;16.388;2023-07-24T16:56:50;31.00;74.70
19330;DHT22;9799;48.214;16.388;2023-07-24T17:00:13;31.10;74.10
19330;DHT22;9799;48.214;16.388;2023-07-24T17:03:36;31.20;74.00
19330;DHT22;9799;48.214;16.388;2023-07-24T17:06:57;31.20;73.90
19330;DHT22;9799;48.214;16.388;2023-07-24T17:10:20;31.10;74.10
19330;DHT22;9799;48.214;16.388;2023-07-24T17:13:43;31.10;74.20
19330;DHT22;9799;48.214;16.388;2023-07-24T17:17:07;31.00;73.80
19330;DHT22;9799;48.214;16.388;2023-07-24T17:20:28;30.90;73.80
19330;DHT22;9799;48.214;16.388;2023-07-24T17:23:51;31.00;73.70
19330;DHT22;9799;48.214;16.388;2023-07-24T17:27:14;30.90;74.10
19330;DHT22;9799;48.214;16.388;2023-07-24T17:30:36;30.80;73.50
19330;DHT22;9799;48.214;16.388;2023-07-24T17:33:58;30.80;73.00
19330;DHT22;9799;48.214;16.388;2023-07-24T17:37:22;30.70;73.00
19330;DHT22;9799;48.214;16.388;2023-07-24T17:40:45;30.70;72.70
19330;DHT22;9799;48.214;16.388;2023-07-24T17:44:10;30.60;72.40
19330;DHT22;9799;48.214;16.388;2023-07-24T17:47:32;30.60;71.90
19330;DHT22;9799;48.214;16.388;2023-07-24T17:50:54;30.60;74.20
19330;DHT22;9799;48.214;16.388;2023-07-24T17:54:17;30.30;81.20
19330;DHT22;9799;48.214;16.388;2023-07-24T17:57:38;29.40;82.00
19330;DHT22;9799;48.214;16.388;2023-07-24T18:01:02;28.70;82.60
19330;DHT22;9799;48.214;16.388;2023-07-24T18:04:26;28.10;85.00
19330;DHT22;9799;48.214;16.388;2023-07-24T18:07:48;27.70;85.90
19330;DHT22;9799;48.214;16.388;2023-07-24T18:11:11;27.50;84.50
19330;DHT22;9799;48.214;16.388;2023-07-24T18:14:33;27.40;84.70
19330;DHT22;9799;48.214;16.388;2023-07-24T18:17:56;27.20;86.50
19330;DHT22;9799;48.214;16.388;2023-07-24T18:21:22;27.20;85.40
19330;DHT22;9799;48.214;16.388;2023-07-24T18:24:45;27.20;87.90
19330;DHT22;9799;48.214;16.388;2023-07-24T18:28:07;27.30;85.90
19330;DHT22;9799;48.214;16.388;2023-07-24T18:31:32;27.30;85.00
19330;DHT22;9799;48.214;16.388;2023-07-24T18:34:56;27.30;84.30
19330;DHT22;9799;48.214;16.388;2023-07-24T18:38:19;27.20;84.60
19330;DHT22;9799;48.214;16.388;2023-07-24T18:41:41;27.20;85.20
19330;DHT22;9799;48.214;16.388;2023-07-24T18:45:05;27.10;87.30
19330;DHT22;9799;48.214;16.388;2023-07-24T18:48:27;26.90;88.70
19330;DHT22;9799;48.214;16.388;2023-07-24T18:51:50;26.40;88.60
19330;DHT22;9799;48.214;16.388;2023-07-24T18:55:13;26.10;90.30
19330;DHT22;9799;48.214;16.388;2023-07-24T18:58:37;26.00;91.00
19330;DHT22;9799;48.214;16.388;2023-07-24T19:01:59;26.20;91.50
19330;DHT22;9799;48.214;16.388;2023-07-24T19:05:21;26.20;91.80
19330;DHT22;9799;48.214;16.388;2023-07-24T19:08:47;26.00;92.70
19330;DHT22;9799;48.214;16.388;2023-07-24T19:12:09;25.90;93.20
19330;DHT22;9799;48.214;16.388;2023-07-24T19:15:33;25.80;93.80
19330;DHT22;9799;48.214;16.388;2023-07-24T19:18:55;25.80;94.10
19330;DHT22;9799;48.214;16.388;2023-07-24T19:22:23;25.80;94.70
19330;DHT22;9799;48.214;16.388;2023-07-24T19:25:47;25.80;94.90
19330;DHT22;9799;48.214;16.388;2023-07-24T19:29:09;25.80;95.10
19330;DHT22;9799;48.214;16.388;2023-07-24T19:32:31;25.80;95.30
19330;DHT22;9799;48.214;16.388;2023-07-24T19:36:00;25.80;95.40
19330;DHT22;9799;48.214;16.388;2023-07-24T19:39:23;25.80;95.70
19330;DHT22;9799;48.214;16.388;2023-07-24T19:42:46;25.90;95.30
19330;DHT22;9799;48.214;16.388;2023-07-24T19:46:09;25.90;95.10
19330;DHT22;9799;48.214;16.388;2023-07-24T19:49:31;25.90;95.00
19330;DHT22;9799;48.214;16.388;2023-07-24T19:52:53;25.90;94.70
19330;DHT22;9799;48.214;16.388;2023-07-24T19:56:16;25.80;94.70
19330;DHT22;9799;48.214;16.388;2023-07-24T19:59:41;25.90;94.30
19330;DHT22;9799;48.214;16.388;2023-07-24T20:03:04;25.90;94.10
19330;DHT22;9799;48.214;16.388;2023-07-24T20:06:25;25.90;93.70
19330;DHT22;9799;48.214;16.388;2023-07-24T20:09:47;25.90;93.60
19330;DHT22;9799;48.214;16.388;2023-07-24T20:13:11;25.90;93.80
19330;DHT22;9799;48.214;16.388;2023-07-24T20:16:33;25.90;93.40
19330;DHT22;9799;48.214;16.388;2023-07-24T20:19:56;25.80;93.10
19330;DHT22;9799;48.214;16.388;2023-07-24T20:23:19;25.90;93.00
19330;DHT22;9799;48.214;16.388;2023-07-24T20:26:42;25.90;92.90
19330;DHT22;9799;48.214;16.388;2023-07-24T20:30:05;25.90;93.00
19330;DHT22;9799;48.214;16.388;2023-07-24T20:33:32;25.80;92.90
19330;DHT22;9799;48.214;16.388;2023-07-24T20:36:54;25.70;93.00
19330;DHT22;9799;48.214;16.388;2023-07-24T20:40:17;25.60;93.20
19330;DHT22;9799;48.214;16.388;2023-07-24T20:43:38;25.60;93.10
19330;DHT22;9799;48.214;16.388;2023-07-24T20:47:03;25.70;92.80
19330;DHT22;9799;48.214;16.388;2023-07-24T20:50:26;25.70;92.70
19330;DHT22;9799;48.214;16.388;2023-07-24T20:53:47;25.70;92.70
19330;DHT22;9799;48.214;16.388;2023-07-24T20:57:10;25.70;92.60
19330;DHT22;9799;48.214;16.388;2023-07-24T21:00:31;25.70;92.60
19330;DHT22;9799;48.214;16.388;2023-07-24T21:03:53;25.70;92.70
19330;DHT22;9799;48.214;16.388;2023-07-24T21:07:15;25.60;93.00
19330;DHT22;9799;48.214;16.388;2023-07-24T21:10:36;25.60;93.00
19330;DHT22;9799;48.214;16.388;2023-07-24T21:13:57;25.60;93.10
19330;DHT22;9799;48.214;16.388;2023-07-24T21:17:19;25.60;93.30